Terminal Aerodrome Forecast
Issued by NWS Jackson, KY

Home | Current Version | Previous Version | Text Only | Print | Product List | Glossary On
Versions: 1 2 3 4 5 6 7 8 9 10 11 12 13 14 15
000
FTUS43 KJKL 121737
TAFJKL
TAF
KJKL 121737Z 1218/1318 29008G17KT P6SM VCSH OVC035
     FM130100 27006KT P6SM SKC
     FM131200 21005KT P6SM SCT070=

USA.gov is the U.S. government's official web portal to all federal, state and local government web resources and services.